首页
METAR-TAF:

METAR-TAF

机场 :

罗马-钱皮诺机场

罗马Ciampino, 意大利

纬度: 41-47N, 经度: 012-35E, 海拔: 129米

当前天气观测

该预报发布于38分钟前的18:20 UTC
风速5节,风向南转西南
温度 12°C
湿度 88%
气压 1023 hPa
能见度10公里或以上
少量云层高于3500英尺

METAR: LIRA 181820Z 21005KT 9999 FEW035 12/10 Q1023

时间: 19:58 (18:58 UTC)

预报

该预报发布于1小时和58分钟前的17:00 UTC
预报有效从18日的 18点(UTC)到 19日的 18点(UTC)
风速5节,风向多变
能见度10公里或以上
少量云层高于2000英尺
散云层高于5000英尺
成为
从 19日的 10点(UTC)到 19日的 12点(UTC)
风速10节,风向西
短暂存在
从 19日的 11点(UTC)到 19日的 16点(UTC)
雷暴, 雨

TAF: LIRA 181700Z 1818/1918 VRB05KT 9999 FEW020 SCT050 BECMG 1910/1912 26010KT TEMPO 1911/1916 TSRA

超过4000个机场的气象观测和天气预报(METAR&TAF报告)。

可查询的气象台以黄色和红色小点在地图上表示。

将鼠标移到小点上方,可查看气象台名称。

然后点击查看天气观测和预报。

如需切换地图:点击带黑十字的绿色按钮放大地图;点击带横线的绿色按钮缩小地图;或者点击绿色箭头查看邻近地区的地图。


METAR-TAF: